sensor_id;sensor_type;location;lat;lon;timestamp;pressure;altitude;pressure_sealevel;temperature;humidity
51524;BME280;37610;51.790;21.590;2023-08-07T00:02:29;98464.00;;;16.39;76.31
51524;BME280;37610;51.790;21.590;2023-08-07T00:06:30;98464.05;;;16.43;76.20
51524;BME280;37610;51.790;21.590;2023-08-07T00:10:32;98452.81;;;16.42;76.34
51524;BME280;37610;51.790;21.590;2023-08-07T00:14:34;98450.66;;;16.40;76.60
51524;BME280;37610;51.790;21.590;2023-08-07T00:18:35;98456.20;;;16.41;77.03
51524;BME280;37610;51.790;21.590;2023-08-07T00:22:37;98461.08;;;16.34;77.82
51524;BME280;37610;51.790;21.590;2023-08-07T00:26:38;98461.20;;;16.28;78.31
51524;BME280;37610;51.790;21.590;2023-08-07T00:30:40;98462.41;;;16.21;78.92
51524;BME280;37610;51.790;21.590;2023-08-07T00:34:42;98457.81;;;16.13;80.29
51524;BME280;37610;51.790;21.590;2023-08-07T00:38:43;98447.72;;;16.08;80.37
51524;BME280;37610;51.790;21.590;2023-08-07T00:42:45;98446.38;;;16.04;80.22
51524;BME280;37610;51.790;21.590;2023-08-07T00:46:47;98447.50;;;15.90;81.47
51524;BME280;37610;51.790;21.590;2023-08-07T00:50:55;98444.82;;;15.82;81.74
51524;BME280;37610;51.790;21.590;2023-08-07T00:54:57;98442.02;;;15.80;82.23
51524;BME280;37610;51.790;21.590;2023-08-07T00:58:59;98434.17;;;15.73;82.03
51524;BME280;37610;51.790;21.590;2023-08-07T01:03:04;98428.73;;;15.74;81.83
51524;BME280;37610;51.790;21.590;2023-08-07T01:07:06;98419.64;;;15.73;81.95
51524;BME280;37610;51.790;21.590;2023-08-07T01:15:22;98417.45;;;15.69;82.49
51524;BME280;37610;51.790;21.590;2023-08-07T01:19:30;98417.36;;;15.57;82.91
51524;BME280;37610;51.790;21.590;2023-08-07T01:23:33;98410.29;;;15.52;82.92
51524;BME280;37610;51.790;21.590;2023-08-07T01:27:59;98418.49;;;15.51;82.76
51524;BME280;37610;51.790;21.590;2023-08-07T01:32:05;98416.63;;;15.51;82.41
51524;BME280;37610;51.790;21.590;2023-08-07T01:36:10;98405.92;;;15.53;82.20
51524;BME280;37610;51.790;21.590;2023-08-07T01:40:13;98397.93;;;15.54;82.31
51524;BME280;37610;51.790;21.590;2023-08-07T01:44:15;98400.61;;;15.52;82.29
51524;BME280;37610;51.790;21.590;2023-08-07T01:48:17;98409.83;;;15.50;82.52
51524;BME280;37610;51.790;21.590;2023-08-07T01:52:20;98431.38;;;15.56;82.01
51524;BME280;37610;51.790;21.590;2023-08-07T01:56:21;98441.52;;;15.57;81.92
51524;BME280;37610;51.790;21.590;2023-08-07T02:00:23;98469.60;;;15.53;82.35
51524;BME280;37610;51.790;21.590;2023-08-07T02:04:25;98472.25;;;15.53;82.17
51524;BME280;37610;51.790;21.590;2023-08-07T02:08:27;98473.05;;;15.55;81.90
51524;BME280;37610;51.790;21.590;2023-08-07T02:12:29;98476.94;;;15.59;81.88
51524;BME280;37610;51.790;21.590;2023-08-07T02:16:33;98468.17;;;15.57;81.92
51524;BME280;37610;51.790;21.590;2023-08-07T02:20:35;98470.41;;;15.62;81.56
51524;BME280;37610;51.790;21.590;2023-08-07T02:24:36;98464.91;;;15.64;81.48
51524;BME280;37610;51.790;21.590;2023-08-07T02:28:38;98465.44;;;15.64;81.13
51524;BME280;37610;51.790;21.590;2023-08-07T02:32:39;98466.00;;;15.68;80.81
51524;BME280;37610;51.790;21.590;2023-08-07T02:36:43;98461.66;;;15.69;80.74
51524;BME280;37610;51.790;21.590;2023-08-07T02:40:45;98449.55;;;15.68;80.61
51524;BME280;37610;51.790;21.590;2023-08-07T02:44:46;98448.46;;;15.65;80.95
51524;BME280;37610;51.790;21.590;2023-08-07T02:48:48;98452.15;;;15.63;80.91
51524;BME280;37610;51.790;21.590;2023-08-07T02:52:50;98469.91;;;15.64;80.55
51524;BME280;37610;51.790;21.590;2023-08-07T02:56:52;98474.33;;;15.59;80.47
51524;BME280;37610;51.790;21.590;2023-08-07T03:00:53;98473.88;;;15.56;80.52
51524;BME280;37610;51.790;21.590;2023-08-07T03:04:55;98477.10;;;15.60;80.39
51524;BME280;37610;51.790;21.590;2023-08-07T03:08:57;98487.67;;;15.66;80.35
51524;BME280;37610;51.790;21.590;2023-08-07T03:12:58;98489.59;;;15.72;80.18
51524;BME280;37610;51.790;21.590;2023-08-07T03:17:00;98490.49;;;15.71;80.15
51524;BME280;37610;51.790;21.590;2023-08-07T03:21:02;98493.95;;;15.73;80.13
51524;BME280;37610;51.790;21.590;2023-08-07T03:25:07;98488.91;;;15.70;79.87
51524;BME280;37610;51.790;21.590;2023-08-07T03:29:09;98487.37;;;15.70;79.68
51524;BME280;37610;51.790;21.590;2023-08-07T03:33:13;98479.39;;;15.70;79.46
51524;BME280;37610;51.790;21.590;2023-08-07T03:37:15;98479.33;;;15.69;79.30
51524;BME280;37610;51.790;21.590;2023-08-07T03:41:17;98472.50;;;15.67;79.20
51524;BME280;37610;51.790;21.590;2023-08-07T03:45:22;98470.43;;;15.66;79.02
51524;BME280;37610;51.790;21.590;2023-08-07T03:49:23;98481.77;;;15.66;78.84
51524;BME280;37610;51.790;21.590;2023-08-07T03:53:34;98489.73;;;15.63;78.62
51524;BME280;37610;51.790;21.590;2023-08-07T03:57:36;98500.96;;;15.62;78.46
51524;BME280;37610;51.790;21.590;2023-08-07T04:01:37;98510.67;;;15.64;77.61
51524;BME280;37610;51.790;21.590;2023-08-07T04:05:39;98516.98;;;15.63;77.40
51524;BME280;37610;51.790;21.590;2023-08-07T04:09:41;98520.37;;;15.70;77.09
51524;BME280;37610;51.790;21.590;2023-08-07T04:13:42;98533.93;;;15.76;76.00
51524;BME280;37610;51.790;21.590;2023-08-07T04:17:44;98539.16;;;15.80;75.27
51524;BME280;37610;51.790;21.590;2023-08-07T04:21:45;98541.14;;;15.79;74.72
51524;BME280;37610;51.790;21.590;2023-08-07T04:25:51;98541.59;;;15.82;74.13
51524;BME280;37610;51.790;21.590;2023-08-07T04:29:53;98541.71;;;15.86;74.18
51524;BME280;37610;51.790;21.590;2023-08-07T04:33:55;98542.14;;;15.92;73.70
51524;BME280;37610;51.790;21.590;2023-08-07T04:37:57;98537.20;;;15.95;73.71
51524;BME280;37610;51.790;21.590;2023-08-07T04:41:58;98542.18;;;15.98;73.39
51524;BME280;37610;51.790;21.590;2023-08-07T04:46:00;98558.28;;;16.06;73.24
51524;BME280;37610;51.790;21.590;2023-08-07T04:50:04;98563.83;;;16.10;73.07
51524;BME280;37610;51.790;21.590;2023-08-07T04:54:06;98566.92;;;16.14;73.07
51524;BME280;37610;51.790;21.590;2023-08-07T04:58:07;98567.47;;;16.18;72.87
51524;BME280;37610;51.790;21.590;2023-08-07T05:02:09;98566.15;;;16.18;72.61
51524;BME280;37610;51.790;21.590;2023-08-07T05:06:11;98567.63;;;16.14;72.72
51524;BME280;37610;51.790;21.590;2023-08-07T05:10:13;98563.59;;;16.14;72.78
51524;BME280;37610;51.790;21.590;2023-08-07T05:14:15;98562.14;;;16.14;73.12
51524;BME280;37610;51.790;21.590;2023-08-07T05:18:16;98563.62;;;16.15;73.10
51524;BME280;37610;51.790;21.590;2023-08-07T05:22:18;98566.70;;;16.11;73.50
51524;BME280;37610;51.790;21.590;2023-08-07T05:26:22;98566.95;;;16.06;73.66
51524;BME280;37610;51.790;21.590;2023-08-07T05:30:24;98563.75;;;16.08;73.63
51524;BME280;37610;51.790;21.590;2023-08-07T05:34:26;98565.92;;;16.04;73.72
51524;BME280;37610;51.790;21.590;2023-08-07T05:38:27;98571.89;;;16.08;73.72
51524;BME280;37610;51.790;21.590;2023-08-07T05:42:29;98579.45;;;16.10;73.51
51524;BME280;37610;51.790;21.590;2023-08-07T05:46:30;98583.13;;;16.04;73.58
51524;BME280;37610;51.790;21.590;2023-08-07T05:50:32;98579.26;;;15.96;73.90
51524;BME280;37610;51.790;21.590;2023-08-07T05:54:37;98567.15;;;15.93;74.03
51524;BME280;37610;51.790;21.590;2023-08-07T05:58:38;98565.66;;;15.91;74.04
51524;BME280;37610;51.790;21.590;2023-08-07T06:02:40;98558.27;;;16.08;73.92
51524;BME280;37610;51.790;21.590;2023-08-07T06:06:42;98548.81;;;16.29;73.40
51524;BME280;37610;51.790;21.590;2023-08-07T06:10:44;98542.59;;;16.42;72.95
51524;BME280;37610;51.790;21.590;2023-08-07T06:14:45;98540.48;;;16.63;72.57
51524;BME280;37610;51.790;21.590;2023-08-07T06:18:47;98535.50;;;16.87;71.10
51524;BME280;37610;51.790;21.590;2023-08-07T06:22:49;98539.78;;;16.97;70.03
51524;BME280;37610;51.790;21.590;2023-08-07T06:26:50;98547.55;;;16.98;69.40
51524;BME280;37610;51.790;21.590;2023-08-07T06:30:52;98552.13;;;17.10;68.48
51524;BME280;37610;51.790;21.590;2023-08-07T06:34:53;98559.77;;;17.20;67.83
51524;BME280;37610;51.790;21.590;2023-08-07T06:38:55;98558.92;;;17.30;67.52
51524;BME280;37610;51.790;21.590;2023-08-07T06:42:56;98563.68;;;17.29;66.60
51524;BME280;37610;51.790;21.590;2023-08-07T06:46:58;98570.94;;;17.35;66.59
51524;BME280;37610;51.790;21.590;2023-08-07T06:50:59;98578.36;;;17.46;66.06
51524;BME280;37610;51.790;21.590;2023-08-07T06:55:01;98575.30;;;17.54;64.94
51524;BME280;37610;51.790;21.590;2023-08-07T06:59:03;98567.79;;;17.33;65.19
51524;BME280;37610;51.790;21.590;2023-08-07T07:03:06;98558.40;;;17.29;65.13
51524;BME280;37610;51.790;21.590;2023-08-07T07:07:09;98564.60;;;17.29;64.71
51524;BME280;37610;51.790;21.590;2023-08-07T07:11:10;98558.60;;;17.30;64.19
51524;BME280;37610;51.790;21.590;2023-08-07T07:15:13;98561.05;;;17.34;64.42
51524;BME280;37610;51.790;21.590;2023-08-07T07:19:15;98567.33;;;17.31;64.65
51524;BME280;37610;51.790;21.590;2023-08-07T07:23:17;98581.73;;;17.35;64.49
51524;BME280;37610;51.790;21.590;2023-08-07T07:27:19;98583.64;;;17.47;64.45
51524;BME280;37610;51.790;21.590;2023-08-07T07:31:21;98592.80;;;17.73;64.03
51524;BME280;37610;51.790;21.590;2023-08-07T07:35:22;98590.98;;;17.89;62.60
51524;BME280;37610;51.790;21.590;2023-08-07T07:39:24;98586.76;;;17.97;62.17
51524;BME280;37610;51.790;21.590;2023-08-07T07:43:25;98596.47;;;17.80;61.82
51524;BME280;37610;51.790;21.590;2023-08-07T07:47:27;98596.11;;;17.70;62.23
51524;BME280;37610;51.790;21.590;2023-08-07T07:51:28;98593.91;;;17.70;62.65
51524;BME280;37610;51.790;21.590;2023-08-07T07:55:30;98605.17;;;17.86;61.85
51524;BME280;37610;51.790;21.590;2023-08-07T07:59:35;98599.30;;;18.08;61.43
51524;BME280;37610;51.790;21.590;2023-08-07T08:03:37;98616.80;;;18.15;60.18
51524;BME280;37610;51.790;21.590;2023-08-07T08:07:39;98611.40;;;17.95;60.36
51524;BME280;37610;51.790;21.590;2023-08-07T08:11:41;98614.73;;;17.78;60.68
51524;BME280;37610;51.790;21.590;2023-08-07T08:15:43;98620.39;;;17.70;60.73
51524;BME280;37610;51.790;21.590;2023-08-07T08:19:45;98613.41;;;17.89;61.02
51524;BME280;37610;51.790;21.590;2023-08-07T08:23:46;98619.20;;;18.24;60.42
51524;BME280;37610;51.790;21.590;2023-08-07T08:27:48;98629.73;;;18.47;59.05
51524;BME280;37610;51.790;21.590;2023-08-07T08:31:52;98619.58;;;18.55;59.44
51524;BME280;37610;51.790;21.590;2023-08-07T08:35:56;98632.67;;;18.63;59.52
51524;BME280;37610;51.790;21.590;2023-08-07T08:39:57;98628.48;;;18.70;59.01
51524;BME280;37610;51.790;21.590;2023-08-07T08:43:59;98642.43;;;18.80;58.53
51524;BME280;37610;51.790;21.590;2023-08-07T08:48:04;98638.13;;;18.95;58.01
51524;BME280;37610;51.790;21.590;2023-08-07T08:52:07;98637.63;;;19.09;57.69
51524;BME280;37610;51.790;21.590;2023-08-07T08:56:09;98628.26;;;19.36;56.79
51524;BME280;37610;51.790;21.590;2023-08-07T09:00:11;98635.56;;;19.64;55.03
51524;BME280;37610;51.790;21.590;2023-08-07T09:04:19;98639.05;;;19.68;54.42
51524;BME280;37610;51.790;21.590;2023-08-07T09:08:22;98646.94;;;19.86;54.54
51524;BME280;37610;51.790;21.590;2023-08-07T09:12:26;98650.25;;;20.25;54.40
51524;BME280;37610;51.790;21.590;2023-08-07T09:16:33;98655.33;;;20.15;53.08
51524;BME280;37610;51.790;21.590;2023-08-07T09:20:36;98672.05;;;19.95;53.50
51524;BME280;37610;51.790;21.590;2023-08-07T09:24:41;98676.12;;;20.13;52.48
51524;BME280;37610;51.790;21.590;2023-08-07T09:28:42;98672.83;;;20.22;51.57
51524;BME280;37610;51.790;21.590;2023-08-07T09:32:47;98680.39;;;20.16;49.89
51524;BME280;37610;51.790;21.590;2023-08-07T09:36:49;98687.49;;;20.08;50.03
51524;BME280;37610;51.790;21.590;2023-08-07T09:40:50;98692.21;;;20.16;50.11
51524;BME280;37610;51.790;21.590;2023-08-07T09:44:52;98687.59;;;20.23;50.47
51524;BME280;37610;51.790;21.590;2023-08-07T09:49:06;98692.80;;;20.23;50.79
51524;BME280;37610;51.790;21.590;2023-08-07T09:53:07;98698.20;;;20.19;50.42
51524;BME280;37610;51.790;21.590;2023-08-07T09:57:11;98688.13;;;20.29;50.66
51524;BME280;37610;51.790;21.590;2023-08-07T10:01:15;98701.80;;;20.39;50.40
51524;BME280;37610;51.790;21.590;2023-08-07T10:05:17;98710.55;;;20.51;49.78
51524;BME280;37610;51.790;21.590;2023-08-07T10:09:20;98711.80;;;20.36;48.72
51524;BME280;37610;51.790;21.590;2023-08-07T10:13:22;98698.52;;;20.36;48.63
51524;BME280;37610;51.790;21.590;2023-08-07T10:17:25;98697.58;;;20.49;49.37
51524;BME280;37610;51.790;21.590;2023-08-07T10:21:27;98691.77;;;20.48;49.52
51524;BME280;37610;51.790;21.590;2023-08-07T10:25:29;98701.76;;;20.26;49.52
51524;BME280;37610;51.790;21.590;2023-08-07T10:29:31;98716.52;;;20.20;49.51
51524;BME280;37610;51.790;21.590;2023-08-07T10:33:34;98719.27;;;20.33;49.40
51524;BME280;37610;51.790;21.590;2023-08-07T10:37:44;98726.55;;;20.40;48.96
51524;BME280;37610;51.790;21.590;2023-08-07T10:41:47;98731.42;;;20.72;48.19
51524;BME280;37610;51.790;21.590;2023-08-07T10:45:49;98741.20;;;20.77;46.60
51524;BME280;37610;51.790;21.590;2023-08-07T10:49:50;98723.94;;;20.63;47.28
51524;BME280;37610;51.790;21.590;2023-08-07T10:53:53;98722.17;;;20.79;48.02
51524;BME280;37610;51.790;21.590;2023-08-07T10:57:56;98729.22;;;21.16;48.13
51524;BME280;37610;51.790;21.590;2023-08-07T11:01:59;98728.91;;;21.32;47.31
51524;BME280;37610;51.790;21.590;2023-08-07T11:06:00;98731.70;;;21.46;47.47
51524;BME280;37610;51.790;21.590;2023-08-07T11:10:02;98733.65;;;21.46;47.41
51524;BME280;37610;51.790;21.590;2023-08-07T11:14:04;98735.77;;;21.48;46.31
51524;BME280;37610;51.790;21.590;2023-08-07T11:18:05;98728.00;;;21.52;46.07
51524;BME280;37610;51.790;21.590;2023-08-07T11:22:07;98732.86;;;21.50;46.32
51524;BME280;37610;51.790;21.590;2023-08-07T11:26:09;98737.16;;;21.46;45.81
51524;BME280;37610;51.790;21.590;2023-08-07T11:30:11;98726.30;;;21.60;45.73
51524;BME280;37610;51.790;21.590;2023-08-07T11:34:13;98739.67;;;21.79;45.28
51524;BME280;37610;51.790;21.590;2023-08-07T11:38:37;98735.84;;;21.44;44.68
51524;BME280;37610;51.790;21.590;2023-08-07T11:42:40;98738.34;;;21.25;45.57
51524;BME280;37610;51.790;21.590;2023-08-07T11:46:42;98738.67;;;21.60;45.37
51524;BME280;37610;51.790;21.590;2023-08-07T11:50:44;98741.61;;;21.69;45.44
51524;BME280;37610;51.790;21.590;2023-08-07T11:54:47;98733.80;;;21.86;45.75
51524;BME280;37610;51.790;21.590;2023-08-07T11:58:51;98743.02;;;21.85;45.14
51524;BME280;37610;51.790;21.590;2023-08-07T12:02:54;98752.53;;;22.08;45.10
51524;BME280;37610;51.790;21.590;2023-08-07T12:06:56;98753.91;;;22.32;44.30
51524;BME280;37610;51.790;21.590;2023-08-07T12:10:58;98762.36;;;22.27;44.02
51524;BME280;37610;51.790;21.590;2023-08-07T12:14:59;98759.80;;;22.23;43.13
51524;BME280;37610;51.790;21.590;2023-08-07T12:19:01;98764.85;;;22.56;43.53
51524;BME280;37610;51.790;21.590;2023-08-07T12:23:13;98766.75;;;22.88;42.21
51524;BME280;37610;51.790;21.590;2023-08-07T12:27:16;98772.33;;;22.76;42.33
51524;BME280;37610;51.790;21.590;2023-08-07T12:31:18;98789.50;;;22.61;42.03
51524;BME280;37610;51.790;21.590;2023-08-07T12:35:19;98798.24;;;22.52;41.99
51524;BME280;37610;51.790;21.590;2023-08-07T12:39:21;98797.87;;;22.42;42.25
51524;BME280;37610;51.790;21.590;2023-08-07T12:43:23;98805.05;;;22.58;42.71
51524;BME280;37610;51.790;21.590;2023-08-07T12:47:24;98810.35;;;22.65;41.66
51524;BME280;37610;51.790;21.590;2023-08-07T12:51:26;98814.28;;;22.57;42.15
51524;BME280;37610;51.790;21.590;2023-08-07T12:55:27;98813.21;;;22.83;42.63
51524;BME280;37610;51.790;21.590;2023-08-07T12:59:29;98814.28;;;22.98;41.10
51524;BME280;37610;51.790;21.590;2023-08-07T13:03:31;98808.52;;;22.90;40.50
51524;BME280;37610;51.790;21.590;2023-08-07T13:07:32;98806.20;;;23.00;40.42
51524;BME280;37610;51.790;21.590;2023-08-07T13:11:34;98800.10;;;23.14;40.36
51524;BME280;37610;51.790;21.590;2023-08-07T13:15:35;98806.69;;;23.28;39.97
51524;BME280;37610;51.790;21.590;2023-08-07T13:19:37;98791.79;;;23.31;40.03
51524;BME280;37610;51.790;21.590;2023-08-07T13:23:38;98793.35;;;23.74;38.63
51524;BME280;37610;51.790;21.590;2023-08-07T13:27:40;98811.92;;;23.58;37.88
51524;BME280;37610;51.790;21.590;2023-08-07T13:31:43;98801.62;;;23.55;37.79
51524;BME280;37610;51.790;21.590;2023-08-07T13:35:47;98805.40;;;23.89;38.27
51524;BME280;37610;51.790;21.590;2023-08-07T13:39:49;98810.29;;;24.08;37.74
51524;BME280;37610;51.790;21.590;2023-08-07T13:43:53;98815.16;;;24.27;35.92
51524;BME280;37610;51.790;21.590;2023-08-07T13:47:54;98829.35;;;24.33;35.73
51524;BME280;37610;51.790;21.590;2023-08-07T13:51:56;98809.18;;;24.89;35.20
51524;BME280;37610;51.790;21.590;2023-08-07T13:55:58;98819.80;;;25.72;34.67
51524;BME280;37610;51.790;21.590;2023-08-07T13:59:59;98817.70;;;26.37;33.38
51524;BME280;37610;51.790;21.590;2023-08-07T14:04:01;98832.36;;;26.20;32.90
51524;BME280;37610;51.790;21.590;2023-08-07T14:08:03;98824.20;;;26.33;32.78
51524;BME280;37610;51.790;21.590;2023-08-07T14:12:06;98815.54;;;30.78;29.08
51524;BME280;37610;51.790;21.590;2023-08-07T14:16:07;98809.38;;;34.03;24.58
51524;BME280;37610;51.790;21.590;2023-08-07T14:20:09;98815.26;;;36.47;21.73
51524;BME280;37610;51.790;21.590;2023-08-07T14:24:12;98814.07;;;37.54;19.15
51524;BME280;37610;51.790;21.590;2023-08-07T14:28:13;98820.23;;;34.94;21.77
51524;BME280;37610;51.790;21.590;2023-08-07T14:32:15;98824.55;;;31.85;25.33
51524;BME280;37610;51.790;21.590;2023-08-07T14:36:16;98827.56;;;29.52;27.94
51524;BME280;37610;51.790;21.590;2023-08-07T14:40:18;98824.89;;;27.78;30.07
51524;BME280;37610;51.790;21.590;2023-08-07T14:44:20;98827.52;;;26.89;31.69
51524;BME280;37610;51.790;21.590;2023-08-07T14:48:21;98819.18;;;31.59;27.96
51524;BME280;37610;51.790;21.590;2023-08-07T14:52:23;98821.92;;;30.75;27.27
51524;BME280;37610;51.790;21.590;2023-08-07T14:56:24;98819.04;;;28.75;29.12
51524;BME280;37610;51.790;21.590;2023-08-07T15:00:26;98808.23;;;27.05;31.05
51524;BME280;37610;51.790;21.590;2023-08-07T15:04:27;98815.70;;;25.82;32.47
51524;BME280;37610;51.790;21.590;2023-08-07T15:08:29;98828.14;;;24.75;33.68
51524;BME280;37610;51.790;21.590;2023-08-07T15:12:30;98835.34;;;23.91;35.27
51524;BME280;37610;51.790;21.590;2023-08-07T15:16:32;98847.06;;;23.05;36.70
51524;BME280;37610;51.790;21.590;2023-08-07T15:20:34;98850.69;;;22.49;38.09
51524;BME280;37610;51.790;21.590;2023-08-07T15:24:36;98854.45;;;22.30;38.69
51524;BME280;37610;51.790;21.590;2023-08-07T15:28:37;98848.90;;;25.41;36.00
51524;BME280;37610;51.790;21.590;2023-08-07T15:32:38;98852.77;;;28.62;31.88
51524;BME280;37610;51.790;21.590;2023-08-07T15:36:42;98859.35;;;27.47;32.77
51524;BME280;37610;51.790;21.590;2023-08-07T15:40:43;98871.48;;;26.16;33.62
51524;BME280;37610;51.790;21.590;2023-08-07T15:44:45;98878.88;;;24.81;35.53
51524;BME280;37610;51.790;21.590;2023-08-07T15:48:46;98881.02;;;23.86;37.01
51524;BME280;37610;51.790;21.590;2023-08-07T15:52:48;98884.78;;;23.11;38.57
51524;BME280;37610;51.790;21.590;2023-08-07T15:56:49;98896.98;;;22.45;39.74
51524;BME280;37610;51.790;21.590;2023-08-07T16:00:52;98900.55;;;21.97;40.47
51524;BME280;37610;51.790;21.590;2023-08-07T16:04:54;98904.95;;;21.83;41.05
51524;BME280;37610;51.790;21.590;2023-08-07T16:08:56;98905.97;;;22.81;40.26
51524;BME280;37610;51.790;21.590;2023-08-07T16:12:58;98915.58;;;23.10;39.63
51524;BME280;37610;51.790;21.590;2023-08-07T16:17:00;98918.13;;;23.05;39.83
51524;BME280;37610;51.790;21.590;2023-08-07T16:21:01;98928.59;;;23.16;39.49
51524;BME280;37610;51.790;21.590;2023-08-07T16:25:23;98931.68;;;23.48;39.71
51524;BME280;37610;51.790;21.590;2023-08-07T16:29:24;98939.20;;;25.60;36.99
51524;BME280;37610;51.790;21.590;2023-08-07T16:33:26;98943.17;;;24.91;37.30
51524;BME280;37610;51.790;21.590;2023-08-07T16:37:28;98946.52;;;23.94;38.18
51524;BME280;37610;51.790;21.590;2023-08-07T16:41:31;98953.90;;;23.14;39.46
51524;BME280;37610;51.790;21.590;2023-08-07T16:45:33;98957.14;;;22.49;40.38
51524;BME280;37610;51.790;21.590;2023-08-07T16:49:34;98957.41;;;22.01;41.07
51524;BME280;37610;51.790;21.590;2023-08-07T16:53:36;98958.88;;;21.73;42.27
51524;BME280;37610;51.790;21.590;2023-08-07T16:57:38;98952.08;;;22.48;41.30
51524;BME280;37610;51.790;21.590;2023-08-07T17:01:39;98947.82;;;22.70;40.68
51524;BME280;37610;51.790;21.590;2023-08-07T17:05:41;98950.29;;;22.36;41.15
51524;BME280;37610;51.790;21.590;2023-08-07T17:09:42;98955.55;;;21.94;41.83
51524;BME280;37610;51.790;21.590;2023-08-07T17:13:44;98952.83;;;21.66;42.12
51524;BME280;37610;51.790;21.590;2023-08-07T17:17:45;98955.27;;;21.51;42.46
51524;BME280;37610;51.790;21.590;2023-08-07T17:21:48;98962.30;;;21.12;43.00
51524;BME280;37610;51.790;21.590;2023-08-07T17:25:49;98971.52;;;20.76;43.99
51524;BME280;37610;51.790;21.590;2023-08-07T17:29:51;98975.16;;;20.49;44.81
51524;BME280;37610;51.790;21.590;2023-08-07T17:33:55;98981.24;;;20.27;45.12
51524;BME280;37610;51.790;21.590;2023-08-07T17:37:57;98981.16;;;20.14;45.84
51524;BME280;37610;51.790;21.590;2023-08-07T17:41:58;98985.33;;;20.02;45.72
51524;BME280;37610;51.790;21.590;2023-08-07T17:46:00;98984.63;;;19.89;46.10
51524;BME280;37610;51.790;21.590;2023-08-07T17:50:02;98991.77;;;19.78;46.53
51524;BME280;37610;51.790;21.590;2023-08-07T17:54:04;98991.73;;;19.67;47.30
51524;BME280;37610;51.790;21.590;2023-08-07T17:58:06;98996.78;;;19.59;48.52
51524;BME280;37610;51.790;21.590;2023-08-07T18:02:07;98989.17;;;19.53;48.56
51524;BME280;37610;51.790;21.590;2023-08-07T18:06:09;98992.08;;;19.49;48.20
51524;BME280;37610;51.790;21.590;2023-08-07T18:10:10;98994.14;;;19.37;49.77
51524;BME280;37610;51.790;21.590;2023-08-07T18:14:12;98993.89;;;19.26;50.04
51524;BME280;37610;51.790;21.590;2023-08-07T18:18:14;98997.27;;;19.16;50.28
51524;BME280;37610;51.790;21.590;2023-08-07T18:22:17;99003.42;;;19.09;50.34
51524;BME280;37610;51.790;21.590;2023-08-07T18:26:19;99011.99;;;18.98;50.90
51524;BME280;37610;51.790;21.590;2023-08-07T18:30:21;99021.09;;;18.82;51.03
51524;BME280;37610;51.790;21.590;2023-08-07T18:34:22;99024.25;;;18.67;51.34
51524;BME280;37610;51.790;21.590;2023-08-07T18:38:24;99027.98;;;18.50;51.88
51524;BME280;37610;51.790;21.590;2023-08-07T18:42:25;99035.70;;;18.35;51.90
51524;BME280;37610;51.790;21.590;2023-08-07T18:46:27;99043.44;;;18.22;51.82
51524;BME280;37610;51.790;21.590;2023-08-07T18:50:28;99042.33;;;18.11;51.88
51524;BME280;37610;51.790;21.590;2023-08-07T18:54:31;99047.88;;;18.01;52.12
51524;BME280;37610;51.790;21.590;2023-08-07T18:58:32;99048.54;;;17.95;51.92
51524;BME280;37610;51.790;21.590;2023-08-07T19:02:35;99057.96;;;17.87;52.11
51524;BME280;37610;51.790;21.590;2023-08-07T19:06:38;99061.84;;;17.83;51.92
51524;BME280;37610;51.790;21.590;2023-08-07T19:10:40;99067.77;;;17.78;52.32
51524;BME280;37610;51.790;21.590;2023-08-07T19:14:42;99070.45;;;17.75;52.19
51524;BME280;37610;51.790;21.590;2023-08-07T19:18:44;99079.91;;;17.69;52.46
51524;BME280;37610;51.790;21.590;2023-08-07T19:22:45;99082.88;;;17.64;52.48
51524;BME280;37610;51.790;21.590;2023-08-07T19:26:47;99087.10;;;17.56;52.85
51524;BME280;37610;51.790;21.590;2023-08-07T19:30:49;99096.34;;;17.48;52.90
51524;BME280;37610;51.790;21.590;2023-08-07T19:34:53;99101.52;;;17.39;53.15
51524;BME280;37610;51.790;21.590;2023-08-07T19:38:55;99107.46;;;17.27;53.70
51524;BME280;37610;51.790;21.590;2023-08-07T19:42:57;99108.53;;;17.18;54.13
51524;BME280;37610;51.790;21.590;2023-08-07T19:46:58;99117.65;;;17.11;54.07
51524;BME280;37610;51.790;21.590;2023-08-07T19:51:01;99123.47;;;17.00;54.35
51524;BME280;37610;51.790;21.590;2023-08-07T19:55:03;99127.79;;;16.89;54.76
51524;BME280;37610;51.790;21.590;2023-08-07T19:59:05;99132.68;;;16.80;55.15
51524;BME280;37610;51.790;21.590;2023-08-07T20:03:06;99140.12;;;16.72;55.44
51524;BME280;37610;51.790;21.590;2023-08-07T20:07:09;99143.45;;;16.64;56.08
51524;BME280;37610;51.790;21.590;2023-08-07T20:11:11;99149.86;;;16.54;56.32
51524;BME280;37610;51.790;21.590;2023-08-07T20:15:13;99152.05;;;16.49;56.27
51524;BME280;37610;51.790;21.590;2023-08-07T20:19:15;99158.58;;;16.41;56.87
51524;BME280;37610;51.790;21.590;2023-08-07T20:23:16;99162.11;;;16.34;57.08
51524;BME280;37610;51.790;21.590;2023-08-07T20:27:18;99164.73;;;16.28;57.49
51524;BME280;37610;51.790;21.590;2023-08-07T20:31:19;99171.23;;;16.25;57.55
51524;BME280;37610;51.790;21.590;2023-08-07T20:35:21;99172.15;;;16.18;58.04
51524;BME280;37610;51.790;21.590;2023-08-07T20:39:23;99171.67;;;16.11;58.56
51524;BME280;37610;51.790;21.590;2023-08-07T20:43:24;99176.47;;;16.04;59.05
51524;BME280;37610;51.790;21.590;2023-08-07T20:47:26;99176.10;;;15.97;59.76
51524;BME280;37610;51.790;21.590;2023-08-07T20:51:27;99173.86;;;15.91;59.83
51524;BME280;37610;51.790;21.590;2023-08-07T20:55:29;99172.69;;;15.88;60.27
51524;BME280;37610;51.790;21.590;2023-08-07T20:59:30;99170.17;;;15.83;60.10
51524;BME280;37610;51.790;21.590;2023-08-07T21:03:32;99167.41;;;15.80;60.21
51524;BME280;37610;51.790;21.590;2023-08-07T21:07:34;99168.31;;;15.75;60.66
51524;BME280;37610;51.790;21.590;2023-08-07T21:11:35;99167.66;;;15.70;60.56